sensor_id;sensor_type;location;lat;lon;timestamp;P1;durP1;ratioP1;P2;durP2;ratioP2
20908;SDS011;10614;53.198;6.570;2023-03-01T00:01:17;11.02;;;4.70;;
20908;SDS011;10614;53.198;6.570;2023-03-01T00:03:20;13.02;;;5.20;;
20908;SDS011;10614;53.198;6.570;2023-03-01T00:05:22;12.23;;;5.65;;
20908;SDS011;10614;53.198;6.570;2023-03-01T00:07:24;12.90;;;5.93;;
20908;SDS011;10614;53.198;6.570;2023-03-01T00:09:26;13.57;;;5.57;;
20908;SDS011;10614;53.198;6.570;2023-03-01T00:11:28;13.95;;;5.78;;
20908;SDS011;10614;53.198;6.570;2023-03-01T00:13:31;12.90;;;5.82;;
20908;SDS011;10614;53.198;6.570;2023-03-01T00:15:33;15.82;;;6.57;;
20908;SDS011;10614;53.198;6.570;2023-03-01T00:17:36;11.70;;;5.35;;
20908;SDS011;10614;53.198;6.570;2023-03-01T00:19:41;11.88;;;5.70;;
20908;SDS011;10614;53.198;6.570;2023-03-01T00:21:43;15.60;;;6.85;;
20908;SDS011;10614;53.198;6.570;2023-03-01T00:23:45;18.08;;;8.93;;
20908;SDS011;10614;53.198;6.570;2023-03-01T00:25:48;13.07;;;6.10;;
20908;SDS011;10614;53.198;6.570;2023-03-01T00:27:51;11.65;;;6.22;;
20908;SDS011;10614;53.198;6.570;2023-03-01T00:29:52;14.85;;;6.35;;
20908;SDS011;10614;53.198;6.570;2023-03-01T00:31:54;10.98;;;5.70;;
20908;SDS011;10614;53.198;6.570;2023-03-01T00:33:58;15.30;;;7.45;;
20908;SDS011;10614;53.198;6.570;2023-03-01T00:36:00;11.20;;;5.45;;
20908;SDS011;10614;53.198;6.570;2023-03-01T00:38:03;10.43;;;5.70;;
20908;SDS011;10614;53.198;6.570;2023-03-01T00:40:06;15.13;;;6.55;;
20908;SDS011;10614;53.198;6.570;2023-03-01T00:42:10;15.52;;;7.05;;
20908;SDS011;10614;53.198;6.570;2023-03-01T00:44:11;16.70;;;7.18;;
20908;SDS011;10614;53.198;6.570;2023-03-01T00:46:14;16.50;;;7.45;;
20908;SDS011;10614;53.198;6.570;2023-03-01T00:48:17;19.93;;;7.47;;
20908;SDS011;10614;53.198;6.570;2023-03-01T00:50:21;13.85;;;6.85;;
20908;SDS011;10614;53.198;6.570;2023-03-01T00:52:22;10.60;;;5.65;;
20908;SDS011;10614;53.198;6.570;2023-03-01T00:54:24;17.20;;;7.78;;
20908;SDS011;10614;53.198;6.570;2023-03-01T00:56:26;15.27;;;7.47;;
20908;SDS011;10614;53.198;6.570;2023-03-01T00:58:29;13.18;;;6.88;;
20908;SDS011;10614;53.198;6.570;2023-03-01T01:00:31;16.13;;;7.07;;
20908;SDS011;10614;53.198;6.570;2023-03-01T01:02:33;15.20;;;6.57;;
20908;SDS011;10614;53.198;6.570;2023-03-01T01:04:36;15.15;;;6.40;;
20908;SDS011;10614;53.198;6.570;2023-03-01T01:06:39;18.70;;;8.20;;
20908;SDS011;10614;53.198;6.570;2023-03-01T01:08:42;15.63;;;6.68;;
20908;SDS011;10614;53.198;6.570;2023-03-01T01:10:44;17.00;;;6.75;;
20908;SDS011;10614;53.198;6.570;2023-03-01T01:12:47;15.95;;;6.78;;
20908;SDS011;10614;53.198;6.570;2023-03-01T01:14:48;14.73;;;6.53;;
20908;SDS011;10614;53.198;6.570;2023-03-01T01:16:50;12.70;;;6.38;;
20908;SDS011;10614;53.198;6.570;2023-03-01T01:18:52;16.63;;;7.22;;
20908;SDS011;10614;53.198;6.570;2023-03-01T01:20:55;15.75;;;7.28;;
20908;SDS011;10614;53.198;6.570;2023-03-01T01:22:58;15.13;;;6.63;;
20908;SDS011;10614;53.198;6.570;2023-03-01T01:25:00;15.73;;;7.05;;
20908;SDS011;10614;53.198;6.570;2023-03-01T01:27:02;14.88;;;7.32;;
20908;SDS011;10614;53.198;6.570;2023-03-01T01:29:04;16.35;;;7.45;;
20908;SDS011;10614;53.198;6.570;2023-03-01T01:31:06;13.35;;;6.93;;
20908;SDS011;10614;53.198;6.570;2023-03-01T01:33:08;14.98;;;7.57;;
20908;SDS011;10614;53.198;6.570;2023-03-01T01:35:10;21.23;;;9.45;;
20908;SDS011;10614;53.198;6.570;2023-03-01T01:37:11;16.35;;;7.93;;
20908;SDS011;10614;53.198;6.570;2023-03-01T01:39:15;15.65;;;7.25;;
20908;SDS011;10614;53.198;6.570;2023-03-01T01:41:17;17.55;;;8.30;;
20908;SDS011;10614;53.198;6.570;2023-03-01T01:43:20;15.20;;;7.07;;
20908;SDS011;10614;53.198;6.570;2023-03-01T01:45:26;15.23;;;6.82;;
20908;SDS011;10614;53.198;6.570;2023-03-01T01:47:31;15.15;;;6.15;;
20908;SDS011;10614;53.198;6.570;2023-03-01T01:49:33;22.40;;;8.30;;
20908;SDS011;10614;53.198;6.570;2023-03-01T01:51:39;18.02;;;7.97;;
20908;SDS011;10614;53.198;6.570;2023-03-01T01:53:44;15.45;;;6.82;;
20908;SDS011;10614;53.198;6.570;2023-03-01T01:55:51;15.23;;;7.30;;
20908;SDS011;10614;53.198;6.570;2023-03-01T01:57:58;13.85;;;6.07;;
20908;SDS011;10614;53.198;6.570;2023-03-01T02:00:04;16.85;;;7.18;;
20908;SDS011;10614;53.198;6.570;2023-03-01T02:02:09;16.20;;;7.57;;
20908;SDS011;10614;53.198;6.570;2023-03-01T02:04:11;16.67;;;7.28;;
20908;SDS011;10614;53.198;6.570;2023-03-01T02:06:13;15.00;;;6.70;;
20908;SDS011;10614;53.198;6.570;2023-03-01T02:08:21;13.65;;;7.05;;
20908;SDS011;10614;53.198;6.570;2023-03-01T02:10:28;20.85;;;8.32;;
20908;SDS011;10614;53.198;6.570;2023-03-01T02:12:36;15.38;;;7.25;;
20908;SDS011;10614;53.198;6.570;2023-03-01T02:14:39;15.70;;;6.88;;
20908;SDS011;10614;53.198;6.570;2023-03-01T02:16:41;14.23;;;7.28;;
20908;SDS011;10614;53.198;6.570;2023-03-01T02:18:43;16.10;;;7.63;;
20908;SDS011;10614;53.198;6.570;2023-03-01T02:20:49;16.20;;;7.45;;
20908;SDS011;10614;53.198;6.570;2023-03-01T02:22:59;18.05;;;7.53;;
20908;SDS011;10614;53.198;6.570;2023-03-01T02:25:04;22.38;;;8.38;;
20908;SDS011;10614;53.198;6.570;2023-03-01T02:27:13;21.13;;;8.27;;
20908;SDS011;10614;53.198;6.570;2023-03-01T02:29:17;17.52;;;8.00;;
20908;SDS011;10614;53.198;6.570;2023-03-01T02:31:20;15.50;;;7.28;;
20908;SDS011;10614;53.198;6.570;2023-03-01T02:33:39;19.00;;;7.93;;
20908;SDS011;10614;53.198;6.570;2023-03-01T02:35:44;15.73;;;6.97;;
20908;SDS011;10614;53.198;6.570;2023-03-01T02:37:46;16.73;;;7.35;;
20908;SDS011;10614;53.198;6.570;2023-03-01T02:39:49;17.50;;;7.55;;
20908;SDS011;10614;53.198;6.570;2023-03-01T02:41:57;17.85;;;7.68;;
20908;SDS011;10614;53.198;6.570;2023-03-01T02:44:00;19.85;;;8.40;;
20908;SDS011;10614;53.198;6.570;2023-03-01T02:46:04;20.83;;;8.88;;
20908;SDS011;10614;53.198;6.570;2023-03-01T02:50:18;23.35;;;8.95;;
20908;SDS011;10614;53.198;6.570;2023-03-01T02:52:45;20.40;;;8.80;;
20908;SDS011;10614;53.198;6.570;2023-03-01T02:54:50;18.55;;;8.95;;
20908;SDS011;10614;53.198;6.570;2023-03-01T02:56:59;14.98;;;6.78;;
20908;SDS011;10614;53.198;6.570;2023-03-01T02:59:00;15.88;;;7.80;;
20908;SDS011;10614;53.198;6.570;2023-03-01T03:01:04;17.50;;;7.78;;
20908;SDS011;10614;53.198;6.570;2023-03-01T03:03:06;18.17;;;7.93;;
20908;SDS011;10614;53.198;6.570;2023-03-01T03:05:10;15.02;;;7.55;;
20908;SDS011;10614;53.198;6.570;2023-03-01T03:07:13;12.87;;;5.77;;
20908;SDS011;10614;53.198;6.570;2023-03-01T03:09:15;16.63;;;7.80;;
20908;SDS011;10614;53.198;6.570;2023-03-01T03:11:17;17.58;;;8.05;;
20908;SDS011;10614;53.198;6.570;2023-03-01T03:13:19;19.50;;;9.07;;
20908;SDS011;10614;53.198;6.570;2023-03-01T03:15:22;21.92;;;10.18;;
20908;SDS011;10614;53.198;6.570;2023-03-01T03:17:26;21.10;;;9.15;;
20908;SDS011;10614;53.198;6.570;2023-03-01T03:19:27;21.05;;;9.07;;
20908;SDS011;10614;53.198;6.570;2023-03-01T03:21:28;17.30;;;7.75;;
20908;SDS011;10614;53.198;6.570;2023-03-01T03:23:30;17.90;;;8.90;;
20908;SDS011;10614;53.198;6.570;2023-03-01T03:25:31;21.67;;;8.93;;
20908;SDS011;10614;53.198;6.570;2023-03-01T03:27:37;19.95;;;8.48;;
20908;SDS011;10614;53.198;6.570;2023-03-01T03:29:40;17.30;;;7.85;;
20908;SDS011;10614;53.198;6.570;2023-03-01T03:31:41;15.70;;;7.20;;
20908;SDS011;10614;53.198;6.570;2023-03-01T03:33:44;15.10;;;6.68;;
20908;SDS011;10614;53.198;6.570;2023-03-01T03:35:47;15.45;;;7.13;;
20908;SDS011;10614;53.198;6.570;2023-03-01T03:37:49;15.32;;;8.25;;
20908;SDS011;10614;53.198;6.570;2023-03-01T03:40:06;17.23;;;7.50;;
20908;SDS011;10614;53.198;6.570;2023-03-01T03:42:15;17.10;;;8.10;;
20908;SDS011;10614;53.198;6.570;2023-03-01T03:44:16;16.50;;;7.22;;
20908;SDS011;10614;53.198;6.570;2023-03-01T03:46:18;18.02;;;8.02;;
20908;SDS011;10614;53.198;6.570;2023-03-01T03:48:20;13.98;;;6.72;;
20908;SDS011;10614;53.198;6.570;2023-03-01T03:50:23;14.85;;;6.97;;
20908;SDS011;10614;53.198;6.570;2023-03-01T03:52:24;14.32;;;6.97;;
20908;SDS011;10614;53.198;6.570;2023-03-01T03:54:26;16.77;;;7.32;;
20908;SDS011;10614;53.198;6.570;2023-03-01T03:56:28;15.73;;;6.30;;
20908;SDS011;10614;53.198;6.570;2023-03-01T03:58:29;13.73;;;5.68;;
20908;SDS011;10614;53.198;6.570;2023-03-01T04:00:32;17.27;;;8.60;;
20908;SDS011;10614;53.198;6.570;2023-03-01T04:02:35;16.23;;;7.28;;
20908;SDS011;10614;53.198;6.570;2023-03-01T04:04:37;12.80;;;6.88;;
20908;SDS011;10614;53.198;6.570;2023-03-01T04:06:40;14.15;;;6.53;;
20908;SDS011;10614;53.198;6.570;2023-03-01T04:08:42;14.25;;;6.72;;
20908;SDS011;10614;53.198;6.570;2023-03-01T04:10:46;18.25;;;7.70;;
20908;SDS011;10614;53.198;6.570;2023-03-01T04:12:48;11.13;;;5.63;;
20908;SDS011;10614;53.198;6.570;2023-03-01T04:14:50;12.95;;;5.60;;
20908;SDS011;10614;53.198;6.570;2023-03-01T04:16:52;12.13;;;5.20;;
20908;SDS011;10614;53.198;6.570;2023-03-01T04:18:53;13.82;;;6.07;;
20908;SDS011;10614;53.198;6.570;2023-03-01T04:20:55;14.27;;;7.05;;
20908;SDS011;10614;53.198;6.570;2023-03-01T04:22:59;15.57;;;7.43;;
20908;SDS011;10614;53.198;6.570;2023-03-01T04:25:10;13.48;;;5.82;;
20908;SDS011;10614;53.198;6.570;2023-03-01T04:27:14;12.05;;;5.95;;
20908;SDS011;10614;53.198;6.570;2023-03-01T17:55:43;12.68;;;6.28;;
20908;SDS011;10614;53.198;6.570;2023-03-01T18:33:21;14.55;;;7.35;;
20908;SDS011;10614;53.198;6.570;2023-03-01T18:35:23;12.15;;;6.28;;
20908;SDS011;10614;53.198;6.570;2023-03-01T18:37:26;11.27;;;6.00;;
20908;SDS011;10614;53.198;6.570;2023-03-01T18:39:31;12.33;;;6.50;;
20908;SDS011;10614;53.198;6.570;2023-03-01T18:41:33;11.05;;;5.60;;
20908;SDS011;10614;53.198;6.570;2023-03-01T18:43:36;11.95;;;6.53;;
20908;SDS011;10614;53.198;6.570;2023-03-01T18:45:38;10.25;;;5.90;;
20908;SDS011;10614;53.198;6.570;2023-03-01T18:47:44;11.07;;;6.30;;
20908;SDS011;10614;53.198;6.570;2023-03-01T18:49:50;11.52;;;6.40;;
20908;SDS011;10614;53.198;6.570;2023-03-01T18:51:52;11.00;;;5.97;;
20908;SDS011;10614;53.198;6.570;2023-03-01T18:53:54;11.65;;;5.90;;
20908;SDS011;10614;53.198;6.570;2023-03-01T18:55:58;11.27;;;6.30;;
20908;SDS011;10614;53.198;6.570;2023-03-01T18:58:01;9.75;;;5.43;;
20908;SDS011;10614;53.198;6.570;2023-03-01T19:00:03;10.38;;;5.78;;
20908;SDS011;10614;53.198;6.570;2023-03-01T19:02:06;8.50;;;5.30;;
20908;SDS011;10614;53.198;6.570;2023-03-01T19:04:07;10.80;;;5.85;;
20908;SDS011;10614;53.198;6.570;2023-03-01T19:06:11;9.95;;;5.85;;
20908;SDS011;10614;53.198;6.570;2023-03-01T19:08:13;10.02;;;5.75;;
20908;SDS011;10614;53.198;6.570;2023-03-01T19:10:14;9.77;;;5.32;;
20908;SDS011;10614;53.198;6.570;2023-03-01T19:12:17;9.95;;;5.35;;
20908;SDS011;10614;53.198;6.570;2023-03-01T19:14:18;8.77;;;4.78;;
20908;SDS011;10614;53.198;6.570;2023-03-01T19:16:21;8.77;;;5.03;;
20908;SDS011;10614;53.198;6.570;2023-03-01T19:18:26;12.63;;;5.55;;
20908;SDS011;10614;53.198;6.570;2023-03-01T19:20:28;10.38;;;5.15;;
20908;SDS011;10614;53.198;6.570;2023-03-01T19:22:31;8.82;;;5.15;;
20908;SDS011;10614;53.198;6.570;2023-03-01T19:24:33;11.27;;;5.90;;
20908;SDS011;10614;53.198;6.570;2023-03-01T19:26:35;10.80;;;5.45;;
20908;SDS011;10614;53.198;6.570;2023-03-01T19:28:41;9.48;;;5.28;;
20908;SDS011;10614;53.198;6.570;2023-03-01T19:30:43;10.65;;;5.88;;
20908;SDS011;10614;53.198;6.570;2023-03-01T19:32:45;9.63;;;5.20;;
20908;SDS011;10614;53.198;6.570;2023-03-01T19:34:47;9.90;;;5.35;;
20908;SDS011;10614;53.198;6.570;2023-03-01T19:36:48;10.38;;;5.40;;
20908;SDS011;10614;53.198;6.570;2023-03-01T19:38:52;8.70;;;5.03;;
20908;SDS011;10614;53.198;6.570;2023-03-01T19:40:54;9.73;;;4.85;;
20908;SDS011;10614;53.198;6.570;2023-03-01T19:42:56;11.02;;;5.30;;
20908;SDS011;10614;53.198;6.570;2023-03-01T19:44:57;9.43;;;5.72;;
20908;SDS011;10614;53.198;6.570;2023-03-01T19:47:02;10.15;;;5.63;;
20908;SDS011;10614;53.198;6.570;2023-03-01T19:49:04;10.27;;;5.07;;
20908;SDS011;10614;53.198;6.570;2023-03-01T19:51:06;10.18;;;5.22;;
20908;SDS011;10614;53.198;6.570;2023-03-01T19:53:09;11.45;;;5.10;;
20908;SDS011;10614;53.198;6.570;2023-03-01T19:55:12;13.60;;;6.10;;
20908;SDS011;10614;53.198;6.570;2023-03-01T19:57:14;10.95;;;5.80;;
20908;SDS011;10614;53.198;6.570;2023-03-01T19:59:16;9.80;;;5.70;;
20908;SDS011;10614;53.198;6.570;2023-03-01T20:01:23;12.45;;;6.47;;
20908;SDS011;10614;53.198;6.570;2023-03-01T20:03:28;11.68;;;5.45;;
20908;SDS011;10614;53.198;6.570;2023-03-01T20:05:32;13.95;;;5.95;;
20908;SDS011;10614;53.198;6.570;2023-03-01T20:07:35;12.00;;;5.97;;
20908;SDS011;10614;53.198;6.570;2023-03-01T20:09:36;10.52;;;5.43;;
20908;SDS011;10614;53.198;6.570;2023-03-01T20:11:40;11.30;;;5.35;;
20908;SDS011;10614;53.198;6.570;2023-03-01T20:13:42;11.75;;;5.63;;
20908;SDS011;10614;53.198;6.570;2023-03-01T20:15:43;9.48;;;5.05;;
20908;SDS011;10614;53.198;6.570;2023-03-01T20:17:45;11.23;;;5.53;;
20908;SDS011;10614;53.198;6.570;2023-03-01T20:19:48;11.52;;;5.05;;
20908;SDS011;10614;53.198;6.570;2023-03-01T20:21:49;10.25;;;5.28;;
20908;SDS011;10614;53.198;6.570;2023-03-01T20:23:51;10.27;;;5.30;;
20908;SDS011;10614;53.198;6.570;2023-03-01T20:26:02;10.82;;;5.55;;
20908;SDS011;10614;53.198;6.570;2023-03-01T20:28:07;8.68;;;4.88;;
20908;SDS011;10614;53.198;6.570;2023-03-01T20:30:09;12.70;;;6.43;;
20908;SDS011;10614;53.198;6.570;2023-03-01T20:32:12;10.10;;;5.43;;
20908;SDS011;10614;53.198;6.570;2023-03-01T20:34:14;10.43;;;5.45;;
20908;SDS011;10614;53.198;6.570;2023-03-01T20:36:19;12.30;;;6.20;;
20908;SDS011;10614;53.198;6.570;2023-03-01T20:38:21;17.55;;;8.05;;
20908;SDS011;10614;53.198;6.570;2023-03-01T20:40:23;13.88;;;7.50;;
20908;SDS011;10614;53.198;6.570;2023-03-01T20:42:27;18.30;;;8.45;;
20908;SDS011;10614;53.198;6.570;2023-03-01T20:44:30;17.17;;;8.43;;
20908;SDS011;10614;53.198;6.570;2023-03-01T20:46:32;17.17;;;8.80;;
20908;SDS011;10614;53.198;6.570;2023-03-01T20:48:34;17.25;;;8.45;;
20908;SDS011;10614;53.198;6.570;2023-03-01T20:50:38;15.55;;;7.40;;
20908;SDS011;10614;53.198;6.570;2023-03-01T20:52:40;20.83;;;9.18;;
20908;SDS011;10614;53.198;6.570;2023-03-01T20:54:43;15.95;;;8.20;;
20908;SDS011;10614;53.198;6.570;2023-03-01T20:56:46;16.98;;;8.10;;
20908;SDS011;10614;53.198;6.570;2023-03-01T20:58:48;18.65;;;8.63;;
20908;SDS011;10614;53.198;6.570;2023-03-01T21:00:51;17.48;;;8.45;;
20908;SDS011;10614;53.198;6.570;2023-03-01T21:02:53;14.38;;;7.97;;
20908;SDS011;10614;53.198;6.570;2023-03-01T21:04:55;15.50;;;7.70;;
20908;SDS011;10614;53.198;6.570;2023-03-01T21:06:57;16.08;;;8.13;;
20908;SDS011;10614;53.198;6.570;2023-03-01T21:08:58;16.35;;;7.85;;
20908;SDS011;10614;53.198;6.570;2023-03-01T21:11:00;16.15;;;7.57;;
20908;SDS011;10614;53.198;6.570;2023-03-01T21:13:02;19.27;;;8.48;;
20908;SDS011;10614;53.198;6.570;2023-03-01T21:15:04;17.98;;;7.88;;
20908;SDS011;10614;53.198;6.570;2023-03-01T21:17:08;17.52;;;8.02;;
20908;SDS011;10614;53.198;6.570;2023-03-01T21:19:10;18.23;;;8.73;;
20908;SDS011;10614;53.198;6.570;2023-03-01T21:21:16;15.32;;;7.60;;
20908;SDS011;10614;53.198;6.570;2023-03-01T21:23:19;17.13;;;7.90;;
20908;SDS011;10614;53.198;6.570;2023-03-01T21:25:21;18.95;;;8.60;;
20908;SDS011;10614;53.198;6.570;2023-03-01T21:27:22;18.98;;;8.65;;
20908;SDS011;10614;53.198;6.570;2023-03-01T21:29:24;17.65;;;8.27;;
20908;SDS011;10614;53.198;6.570;2023-03-01T21:31:26;19.00;;;9.10;;
20908;SDS011;10614;53.198;6.570;2023-03-01T21:33:32;16.90;;;7.97;;
20908;SDS011;10614;53.198;6.570;2023-03-01T21:35:34;14.70;;;7.65;;
20908;SDS011;10614;53.198;6.570;2023-03-01T21:37:36;17.55;;;9.00;;
20908;SDS011;10614;53.198;6.570;2023-03-01T21:39:37;21.40;;;9.25;;
20908;SDS011;10614;53.198;6.570;2023-03-01T21:41:39;19.52;;;8.27;;
20908;SDS011;10614;53.198;6.570;2023-03-01T21:43:41;16.75;;;7.68;;
20908;SDS011;10614;53.198;6.570;2023-03-01T21:45:44;12.30;;;6.75;;
20908;SDS011;10614;53.198;6.570;2023-03-01T21:47:45;17.33;;;6.93;;
20908;SDS011;10614;53.198;6.570;2023-03-01T21:49:49;15.95;;;8.15;;
20908;SDS011;10614;53.198;6.570;2023-03-01T21:51:50;13.55;;;7.18;;
20908;SDS011;10614;53.198;6.570;2023-03-01T21:53:53;14.65;;;7.32;;
20908;SDS011;10614;53.198;6.570;2023-03-01T21:55:55;16.75;;;8.07;;
20908;SDS011;10614;53.198;6.570;2023-03-01T21:57:57;16.30;;;7.95;;
20908;SDS011;10614;53.198;6.570;2023-03-01T21:59:59;16.05;;;7.53;;
20908;SDS011;10614;53.198;6.570;2023-03-01T22:02:00;17.60;;;8.27;;
20908;SDS011;10614;53.198;6.570;2023-03-01T22:04:02;14.77;;;7.32;;
20908;SDS011;10614;53.198;6.570;2023-03-01T22:06:06;15.70;;;7.72;;
20908;SDS011;10614;53.198;6.570;2023-03-01T22:08:08;16.15;;;7.75;;
20908;SDS011;10614;53.198;6.570;2023-03-01T22:10:10;14.20;;;7.28;;
20908;SDS011;10614;53.198;6.570;2023-03-01T22:12:11;15.02;;;6.47;;
20908;SDS011;10614;53.198;6.570;2023-03-01T22:14:13;13.02;;;6.43;;
20908;SDS011;10614;53.198;6.570;2023-03-01T22:16:16;13.82;;;6.40;;
20908;SDS011;10614;53.198;6.570;2023-03-01T22:18:18;11.02;;;6.15;;
20908;SDS011;10614;53.198;6.570;2023-03-01T22:20:19;12.90;;;6.38;;
20908;SDS011;10614;53.198;6.570;2023-03-01T22:22:22;14.38;;;6.78;;
20908;SDS011;10614;53.198;6.570;2023-03-01T22:24:24;13.55;;;6.28;;
20908;SDS011;10614;53.198;6.570;2023-03-01T22:26:27;12.85;;;6.32;;
20908;SDS011;10614;53.198;6.570;2023-03-01T22:28:30;11.48;;;5.38;;
20908;SDS011;10614;53.198;6.570;2023-03-01T22:30:32;14.27;;;6.07;;
20908;SDS011;10614;53.198;6.570;2023-03-01T22:32:34;12.50;;;6.00;;
20908;SDS011;10614;53.198;6.570;2023-03-01T22:34:36;11.30;;;5.57;;
20908;SDS011;10614;53.198;6.570;2023-03-01T22:36:38;15.07;;;6.50;;
20908;SDS011;10614;53.198;6.570;2023-03-01T22:38:41;13.52;;;6.07;;
20908;SDS011;10614;53.198;6.570;2023-03-01T22:40:43;13.38;;;5.95;;
20908;SDS011;10614;53.198;6.570;2023-03-01T22:42:44;13.35;;;6.50;;
20908;SDS011;10614;53.198;6.570;2023-03-01T22:44:46;14.18;;;6.43;;
20908;SDS011;10614;53.198;6.570;2023-03-01T22:46:48;13.00;;;6.28;;
20908;SDS011;10614;53.198;6.570;2023-03-01T22:48:50;12.65;;;6.10;;
20908;SDS011;10614;53.198;6.570;2023-03-01T22:50:52;11.13;;;5.32;;
20908;SDS011;10614;53.198;6.570;2023-03-01T22:52:54;11.15;;;5.60;;
20908;SDS011;10614;53.198;6.570;2023-03-01T22:54:57;11.77;;;5.72;;
20908;SDS011;10614;53.198;6.570;2023-03-01T22:56:59;11.52;;;5.68;;
20908;SDS011;10614;53.198;6.570;2023-03-01T22:59:02;14.98;;;6.55;;
20908;SDS011;10614;53.198;6.570;2023-03-01T23:01:08;14.00;;;6.63;;
20908;SDS011;10614;53.198;6.570;2023-03-01T23:03:11;12.70;;;5.80;;
20908;SDS011;10614;53.198;6.570;2023-03-01T23:05:13;13.48;;;5.90;;
20908;SDS011;10614;53.198;6.570;2023-03-01T23:07:14;13.13;;;6.35;;
20908;SDS011;10614;53.198;6.570;2023-03-01T23:09:17;13.02;;;5.80;;
20908;SDS011;10614;53.198;6.570;2023-03-01T23:11:21;13.55;;;6.75;;
20908;SDS011;10614;53.198;6.570;2023-03-01T23:13:23;13.43;;;6.70;;
20908;SDS011;10614;53.198;6.570;2023-03-01T23:15:25;14.32;;;6.50;;
20908;SDS011;10614;53.198;6.570;2023-03-01T23:17:27;12.48;;;6.15;;
20908;SDS011;10614;53.198;6.570;2023-03-01T23:19:29;11.90;;;5.30;;
20908;SDS011;10614;53.198;6.570;2023-03-01T23:21:31;13.27;;;6.35;;
20908;SDS011;10614;53.198;6.570;2023-03-01T23:23:33;10.65;;;6.30;;
20908;SDS011;10614;53.198;6.570;2023-03-01T23:25:35;12.50;;;5.80;;
20908;SDS011;10614;53.198;6.570;2023-03-01T23:27:38;11.85;;;5.88;;
20908;SDS011;10614;53.198;6.570;2023-03-01T23:29:40;13.75;;;5.78;;
20908;SDS011;10614;53.198;6.570;2023-03-01T23:31:43;11.30;;;6.35;;
20908;SDS011;10614;53.198;6.570;2023-03-01T23:33:45;12.93;;;6.80;;
20908;SDS011;10614;53.198;6.570;2023-03-01T23:35:47;12.88;;;6.50;;
20908;SDS011;10614;53.198;6.570;2023-03-01T23:37:48;11.15;;;6.22;;
20908;SDS011;10614;53.198;6.570;2023-03-01T23:39:52;12.43;;;6.57;;
20908;SDS011;10614;53.198;6.570;2023-03-01T23:41:53;11.95;;;6.50;;
20908;SDS011;10614;53.198;6.570;2023-03-01T23:43:58;12.80;;;6.82;;
20908;SDS011;10614;53.198;6.570;2023-03-01T23:46:03;12.90;;;6.50;;
20908;SDS011;10614;53.198;6.570;2023-03-01T23:48:05;14.13;;;6.78;;
20908;SDS011;10614;53.198;6.570;2023-03-01T23:50:07;11.65;;;6.03;;
20908;SDS011;10614;53.198;6.570;2023-03-01T23:52:10;13.40;;;6.35;;
20908;SDS011;10614;53.198;6.570;2023-03-01T23:54:15;12.93;;;6.45;;
20908;SDS011;10614;53.198;6.570;2023-03-01T23:56:18;11.27;;;5.45;;
20908;SDS011;10614;53.198;6.570;2023-03-01T23:58:24;13.48;;;6.53;;
